Time;durP1;ratioP1;P1;durP2;ratioP2;P2;SDS_P1;SDS_P2;PMS_P1;PMS_P2;Temp;Humidity;BMP_temperature;BMP_pressure;BME280_temperature;BME280_humidity;BME280_pressure;Samples;Min_cycle;Max_cycle;Signal;HPM_P1;HPM_P2
2023/07/28 00:00:33;;;;;;;6.40;5.75;;;19.30;98.00;;;;;;5032738;28;20021;-68
2023/07/28 00:02:59;;;;;;;6.90;5.93;;;19.30;98.00;;;;;;5060495;28;20031;-68
2023/07/28 00:05:24;;;;;;;6.47;5.60;;;19.30;98.00;;;;;;5072447;28;20032;-68
2023/07/28 00:07:50;;;;;;;7.10;5.45;;;19.30;98.10;;;;;;5072646;28;20021;-68
2023/07/28 00:10:15;;;;;;;6.18;5.13;;;19.30;98.10;;;;;;5071980;28;20055;-68
2023/07/28 00:12:41;;;;;;;5.10;4.60;;;19.30;98.00;;;;;;5054698;28;20078;-69
2023/07/28 00:15:07;;;;;;;6.82;6.22;;;19.30;97.90;;;;;;5072320;28;20141;-68
2023/07/28 00:17:32;;;;;;;6.05;5.30;;;19.30;97.90;;;;;;5066444;28;20020;-68
2023/07/28 00:19:58;;;;;;;6.20;5.60;;;19.30;97.90;;;;;;5059280;28;20394;-68
2023/07/28 00:22:23;;;;;;;5.95;5.35;;;19.30;97.90;;;;;;5063890;28;20025;-68
2023/07/28 00:24:49;;;;;;;5.63;5.13;;;19.30;97.90;;;;;;5071893;28;20033;-69
2023/07/28 00:27:14;;;;;;;5.25;4.72;;;19.30;98.00;;;;;;5072540;28;20024;-70
2023/07/28 00:29:41;;;;;;;5.28;4.78;;;19.30;98.00;;;;;;5072092;28;20033;-68
2023/07/28 00:32:07;;;;;;;5.95;5.28;;;19.30;98.00;;;;;;5071969;28;20374;-68
2023/07/28 00:34:32;;;;;;;5.63;5.13;;;19.30;97.90;;;;;;5071945;28;20028;-68
2023/07/28 00:36:58;;;;;;;5.63;4.20;;;19.40;97.90;;;;;;5054065;28;20021;-69
2023/07/28 00:39:23;;;;;;;7.43;6.72;;;19.40;97.90;;;;;;5051367;28;20032;-68
2023/07/28 00:41:49;;;;;;;6.50;5.70;;;19.40;97.90;;;;;;5051544;28;20017;-68
2023/07/28 00:44:16;;;;;;;5.82;5.00;;;19.30;97.90;;;;;;5051740;28;20028;-68
2023/07/28 00:46:42;;;;;;;6.32;5.72;;;19.30;98.00;;;;;;5051201;28;20044;-68
2023/07/28 00:49:08;;;;;;;5.15;4.20;;;19.30;98.10;;;;;;5051838;28;20565;-68
2023/07/28 00:51:35;;;;;;;7.60;6.35;;;19.30;98.00;;;;;;5051623;28;20029;-68
2023/07/28 00:54:03;;;;;;;6.78;6.07;;;19.30;98.00;;;;;;5050270;28;20103;-68
2023/07/28 00:56:29;;;;;;;5.80;4.88;;;19.30;98.30;;;;;;5058655;28;20590;-68
2023/07/28 00:58:55;;;;;;;6.47;5.55;;;19.30;98.10;;;;;;5067311;28;20025;-68
2023/07/28 01:01:21;;;;;;;6.03;5.22;;;19.30;98.10;;;;;;5053632;28;20086;-68
2023/07/28 01:03:47;;;;;;;6.35;5.75;;;19.30;98.10;;;;;;5071882;28;20029;-68
2023/07/28 01:06:50;;;;;;;6.10;5.50;;;19.30;98.10;;;;;;5071384;28;20031;-68
2023/07/28 01:09:22;;;;;;;7.35;5.40;;;19.30;98.00;;;;;;5071260;28;20052;-68
2023/07/28 01:11:58;;;;;;;7.97;6.22;;;19.30;98.10;;;;;;5067986;28;20016;-68
2023/07/28 01:14:24;;;;;;;6.03;5.40;;;19.30;98.10;;;;;;5055813;28;20137;-68
2023/07/28 01:16:50;;;;;;;6.85;5.93;;;19.30;98.10;;;;;;5066209;28;20012;-68
2023/07/28 01:19:20;;;;;;;5.85;5.18;;;19.30;98.10;;;;;;5071037;28;20047;-68
2023/07/28 01:21:57;;;;;;;7.68;5.70;;;19.30;98.00;;;;;;5071216;28;20511;-68
2023/07/28 01:24:38;;;;;;;6.60;5.78;;;19.30;98.00;;;;;;5070844;28;20040;-68
2023/07/28 01:27:04;;;;;;;6.37;5.20;;;19.30;98.10;;;;;;5071110;28;20017;-68
2023/07/28 01:29:30;;;;;;;8.60;6.45;;;19.30;98.10;;;;;;5070509;28;20115;-68
2023/07/28 01:31:59;;;;;;;7.10;6.05;;;19.30;98.20;;;;;;5058393;28;20021;-68
2023/07/28 01:34:25;;;;;;;7.97;5.78;;;19.30;98.20;;;;;;5062201;28;20016;-68
2023/07/28 01:36:50;;;;;;;7.63;6.10;;;19.30;98.10;;;;;;5071228;28;20031;-68
2023/07/28 01:39:16;;;;;;;7.82;6.68;;;19.30;98.10;;;;;;5070728;28;20052;-68
2023/07/28 01:41:43;;;;;;;8.27;6.55;;;19.30;98.10;;;;;;5070936;28;20119;-68
2023/07/28 01:44:09;;;;;;;5.95;5.35;;;19.30;98.20;;;;;;5070803;28;20332;-68
2023/07/28 01:46:35;;;;;;;8.82;6.93;;;19.30;98.40;;;;;;5071275;28;20043;-68
2023/07/28 01:49:00;;;;;;;7.40;6.32;;;19.30;98.20;;;;;;5061652;28;20029;-68
2023/07/28 01:51:26;;;;;;;7.35;6.28;;;19.30;98.20;;;;;;5050897;28;20017;-68
2023/07/28 01:53:52;;;;;;;8.18;6.30;;;19.40;98.10;;;;;;5065877;28;20522;-68
2023/07/28 01:56:17;;;;;;;9.75;8.75;;;19.40;98.10;;;;;;5070329;28;20391;-68
2023/07/28 01:58:43;;;;;;;6.60;5.90;;;19.30;98.20;;;;;;5069594;28;20476;-68
2023/07/28 02:01:08;;;;;;;6.85;6.13;;;19.30;98.30;;;;;;5070337;28;20025;-68
2023/07/28 02:03:34;;;;;;;9.18;7.72;;;19.30;98.30;;;;;;5070248;28;20029;-68
2023/07/28 02:06:00;;;;;;;10.02;7.78;;;19.20;98.30;;;;;;5070217;28;20387;-69
2023/07/28 02:08:26;;;;;;;7.97;6.90;;;19.20;98.50;;;;;;5051738;28;20049;-68
2023/07/28 02:10:53;;;;;;;8.77;7.25;;;19.20;98.50;;;;;;5057169;28;20063;-68
2023/07/28 02:13:19;;;;;;;9.70;6.78;;;19.30;98.50;;;;;;5049449;28;20451;-68
2023/07/28 02:15:44;;;;;;;8.25;6.53;;;19.30;98.40;;;;;;5043786;28;20051;-69
2023/07/28 02:18:10;;;;;;;9.93;7.38;;;19.30;98.40;;;;;;5059594;28;20024;-68
2023/07/28 02:20:35;;;;;;;9.70;8.07;;;19.30;98.30;;;;;;5069880;28;20027;-68
2023/07/28 02:23:02;;;;;;;8.98;7.50;;;19.30;98.20;;;;;;5070318;28;20033;-68
2023/07/28 02:25:27;;;;;;;9.80;7.38;;;19.30;98.30;;;;;;5058368;28;20453;-68
2023/07/28 02:27:53;;;;;;;8.15;6.68;;;19.30;98.30;;;;;;5056402;28;20025;-69
2023/07/28 02:30:18;;;;;;;9.07;6.68;;;19.30;98.20;;;;;;5069226;28;20368;-68
2023/07/28 02:32:44;;;;;;;9.25;7.30;;;19.30;98.20;;;;;;5069845;28;20024;-68
2023/07/28 02:35:10;;;;;;;10.55;8.20;;;19.40;98.10;;;;;;5069973;28;20020;-68
2023/07/28 02:37:36;;;;;;;11.00;7.15;;;19.30;98.10;;;;;;5069657;28;20028;-68
2023/07/28 02:40:01;;;;;;;9.98;6.97;;;19.40;98.10;;;;;;5070512;28;20418;-68
2023/07/28 02:42:27;;;;;;;9.27;7.40;;;19.40;98.00;;;;;;5059337;28;20029;-68
2023/07/28 02:44:52;;;;;;;11.75;8.85;;;19.40;98.00;;;;;;5056873;28;20078;-68
2023/07/28 02:47:18;;;;;;;10.02;7.38;;;19.40;98.00;;;;;;5059250;28;20048;-68
2023/07/28 02:49:45;;;;;;;12.50;8.65;;;19.30;98.00;;;;;;5055924;28;20024;-68
2023/07/28 02:52:11;;;;;;;11.02;8.50;;;19.40;97.90;;;;;;5069582;28;20336;-68
2023/07/28 02:54:36;;;;;;;13.15;8.85;;;19.40;97.90;;;;;;5069721;28;20048;-68
2023/07/28 02:57:02;;;;;;;11.60;9.07;;;19.40;97.90;;;;;;5069766;28;20025;-68
2023/07/28 02:59:29;;;;;;;12.55;7.88;;;19.40;98.00;;;;;;5069744;28;20021;-68
2023/07/28 03:01:57;;;;;;;11.00;7.68;;;19.40;98.00;;;;;;5069656;28;20104;-68
2023/07/28 03:04:22;;;;;;;9.88;6.88;;;19.40;98.00;;;;;;5069559;28;20059;-69
2023/07/28 03:06:48;;;;;;;12.45;8.55;;;19.40;97.90;;;;;;5069701;28;20048;-68
2023/07/28 03:09:15;;;;;;;12.40;9.02;;;19.40;97.90;;;;;;5070553;28;20483;-68
2023/07/28 03:11:44;;;;;;;16.98;9.73;;;19.40;97.90;;;;;;5089116;28;20035;-68
2023/07/28 03:14:11;;;;;;;14.65;10.05;;;19.40;97.90;;;;;;5073448;28;20049;-68
2023/07/28 03:16:36;;;;;;;12.88;9.38;;;19.40;97.90;;;;;;5073598;28;20356;-68
2023/07/28 03:19:02;;;;;;;18.55;11.43;;;19.40;97.90;;;;;;5073486;28;20025;-68
2023/07/28 03:21:31;;;;;;;16.88;11.68;;;19.40;97.90;;;;;;5073720;28;20017;-69
2023/07/28 03:23:56;;;;;;;13.90;8.65;;;19.40;97.90;;;;;;5073458;28;20059;-69
2023/07/28 03:26:22;;;;;;;15.63;10.40;;;19.40;97.90;;;;;;5073203;28;20056;-68
2023/07/28 03:28:47;;;;;;;14.63;10.13;;;19.40;98.00;;;;;;5073339;28;20021;-68
2023/07/28 03:31:13;;;;;;;15.05;10.98;;;19.40;98.00;;;;;;5073117;28;20399;-68
2023/07/28 03:33:39;;;;;;;16.52;11.40;;;19.40;98.00;;;;;;5073194;28;20028;-68
2023/07/28 03:36:04;;;;;;;14.88;9.85;;;19.40;98.00;;;;;;5072963;28;20111;-68
2023/07/28 03:38:30;;;;;;;14.82;9.27;;;19.40;98.00;;;;;;5073126;28;20479;-68
2023/07/28 03:40:55;;;;;;;15.27;10.95;;;19.50;97.90;;;;;;5073214;28;20267;-69
2023/07/28 03:43:21;;;;;;;18.52;11.77;;;19.50;97.90;;;;;;5073411;28;20074;-69
2023/07/28 03:45:47;;;;;;;17.33;12.32;;;19.50;97.90;;;;;;5054808;28;20111;-68
2023/07/28 03:48:13;;;;;;;19.88;12.27;;;19.40;98.00;;;;;;5052927;28;20029;-68
2023/07/28 03:50:39;;;;;;;14.25;10.20;;;19.40;98.10;;;;;;5066702;28;20085;-68
2023/07/28 03:53:04;;;;;;;17.65;11.23;;;19.40;98.10;;;;;;5054944;28;20048;-68
2023/07/28 03:55:30;;;;;;;17.35;10.68;;;19.40;98.20;;;;;;5072940;28;20035;-69
2023/07/28 03:57:55;;;;;;;19.55;12.27;;;19.40;98.20;;;;;;5072010;28;20025;-68
2023/07/28 04:00:22;;;;;;;17.83;11.63;;;19.40;98.20;;;;;;5052253;28;20472;-68
2023/07/28 04:02:47;;;;;;;20.75;12.50;;;19.40;98.20;;;;;;5067451;28;20050;-68
2023/07/28 04:05:13;;;;;;;19.30;11.82;;;19.40;98.30;;;;;;5055402;28;20037;-68
2023/07/28 04:07:38;;;;;;;19.55;12.10;;;19.40;98.30;;;;;;5066099;28;20077;-68
2023/07/28 04:10:04;;;;;;;18.85;12.85;;;19.40;98.30;;;;;;5072721;28;20344;-68
2023/07/28 04:12:30;;;;;;;20.10;12.73;;;19.40;98.30;;;;;;5055152;28;20479;-68
2023/07/28 04:14:55;;;;;;;18.50;11.93;;;19.40;98.30;;;;;;5072863;28;20050;-68
2023/07/28 04:17:21;;;;;;;17.38;11.68;;;19.40;98.40;;;;;;5054826;28;20017;-68
2023/07/28 04:19:47;;;;;;;20.58;12.23;;;19.40;98.40;;;;;;5072485;28;20021;-68
2023/07/28 04:22:13;;;;;;;18.50;11.27;;;19.40;98.50;;;;;;5053487;28;20506;-68
2023/07/28 04:24:38;;;;;;;21.15;11.73;;;19.40;98.50;;;;;;5072404;28;20546;-68
2023/07/28 04:27:04;;;;;;;18.10;12.50;;;19.40;98.50;;;;;;5072461;28;20112;-68
2023/07/28 04:29:30;;;;;;;15.55;10.35;;;19.40;98.50;;;;;;5072134;28;20063;-68
2023/07/28 04:31:55;;;;;;;15.93;10.98;;;19.40;98.50;;;;;;5072267;28;20021;-68
2023/07/28 04:34:21;;;;;;;18.77;11.85;;;19.40;98.40;;;;;;5072061;28;20387;-68
2023/07/28 04:36:46;;;;;;;14.95;9.98;;;19.50;98.50;;;;;;5071950;28;20106;-68
2023/07/28 04:39:12;;;;;;;16.98;10.82;;;19.50;98.40;;;;;;5071978;28;20028;-68
2023/07/28 04:41:38;;;;;;;15.32;10.27;;;19.50;98.40;;;;;;5072116;28;20110;-68
2023/07/28 04:44:03;;;;;;;18.60;11.18;;;19.50;98.40;;;;;;5072080;28;20021;-68
2023/07/28 04:46:29;;;;;;;18.27;11.63;;;19.50;98.40;;;;;;5053931;28;20056;-68
2023/07/28 04:48:57;;;;;;;21.73;14.63;;;19.60;98.30;;;;;;5071770;28;20028;-69
2023/07/28 04:51:22;;;;;;;19.08;12.65;;;19.60;98.30;;;;;;5071904;28;20062;-68
2023/07/28 04:53:48;;;;;;;18.60;11.65;;;19.50;98.40;;;;;;5071583;28;20445;-69
2023/07/28 04:56:13;;;;;;;16.00;10.13;;;19.50;98.60;;;;;;5071698;28;20024;-68
2023/07/28 04:58:39;;;;;;;20.02;12.20;;;19.50;98.60;;;;;;5071973;28;20016;-68
2023/07/28 05:01:05;;;;;;;18.77;11.43;;;19.50;98.60;;;;;;5053486;28;20464;-68
2023/07/28 05:03:30;;;;;;;19.77;12.23;;;19.50;98.70;;;;;;5071542;28;20016;-69
2023/07/28 05:05:56;;;;;;;14.90;10.07;;;19.50;98.70;;;;;;5071216;28;20162;-68
2023/07/28 05:08:22;;;;;;;18.92;11.27;;;19.50;98.70;;;;;;5071621;28;20028;-68
2023/07/28 05:10:47;;;;;;;18.85;13.00;;;19.50;98.60;;;;;;5071252;28;20028;-68
2023/07/28 05:13:13;;;;;;;17.52;11.20;;;19.60;98.60;;;;;;5071404;28;20060;-68
2023/07/28 05:15:39;;;;;;;16.20;10.57;;;19.60;98.60;;;;;;5071140;28;20032;-68
2023/07/28 05:18:04;;;;;;;16.60;9.98;;;19.60;98.60;;;;;;5071322;28;20475;-68
2023/07/28 05:20:30;;;;;;;14.20;9.30;;;19.60;98.60;;;;;;5071190;28;20024;-68
2023/07/28 05:22:56;;;;;;;18.05;11.07;;;19.60;98.50;;;;;;5071238;28;20395;-68
2023/07/28 05:25:22;;;;;;;23.42;13.77;;;19.60;98.50;;;;;;5070976;28;20443;-68
2023/07/28 05:27:47;;;;;;;17.75;10.95;;;19.60;98.50;;;;;;5071170;28;20426;-68
2023/07/28 05:30:13;;;;;;;20.13;11.90;;;19.60;98.60;;;;;;5043943;28;20034;-69
2023/07/28 05:32:38;;;;;;;17.73;12.32;;;19.50;98.50;;;;;;5040946;28;20592;-68
2023/07/28 05:35:04;;;;;;;18.33;11.38;;;19.60;98.60;;;;;;5050654;28;20025;-68
2023/07/28 05:37:30;;;;;;;20.50;13.25;;;19.60;98.50;;;;;;5050847;28;20580;-68
2023/07/28 05:39:55;;;;;;;15.32;10.63;;;19.50;98.60;;;;;;5032946;28;20017;-68
2023/07/28 05:42:21;;;;;;;16.98;11.07;;;19.60;98.70;;;;;;5032818;28;20021;-68
2023/07/28 05:44:47;;;;;;;16.77;10.98;;;19.50;98.70;;;;;;5050812;28;20025;-68
2023/07/28 05:47:12;;;;;;;20.17;12.82;;;19.60;98.70;;;;;;5050602;28;20392;-68
2023/07/28 05:49:38;;;;;;;19.88;13.32;;;19.60;98.70;;;;;;5050641;28;20286;-69
2023/07/28 05:52:03;;;;;;;21.92;13.13;;;19.60;98.60;;;;;;5050491;28;20025;-69
2023/07/28 05:54:29;;;;;;;19.05;12.88;;;19.50;98.70;;;;;;5050679;28;20025;-68
2023/07/28 05:56:55;;;;;;;18.77;12.35;;;19.60;98.70;;;;;;5050502;28;20021;-68
2023/07/28 05:59:21;;;;;;;20.80;13.98;;;19.60;98.70;;;;;;5050507;28;20029;-68
2023/07/28 06:01:46;;;;;;;21.63;12.65;;;19.60;98.70;;;;;;5050423;28;20013;-68
2023/07/28 06:04:12;;;;;;;21.98;13.07;;;19.60;98.70;;;;;;5050475;28;20382;-68
2023/07/28 06:06:37;;;;;;;20.65;11.70;;;19.60;98.70;;;;;;5050344;28;20017;-69
2023/07/28 06:09:03;;;;;;;14.25;9.82;;;19.60;98.70;;;;;;5050406;28;20360;-68
2023/07/28 06:11:28;;;;;;;17.63;11.75;;;19.60;98.70;;;;;;5050547;28;20029;-69
2023/07/28 06:13:54;;;;;;;17.52;11.52;;;19.60;98.60;;;;;;5050324;28;20113;-68
2023/07/28 06:16:20;;;;;;;12.85;10.18;;;19.70;98.60;;;;;;5050287;28;20017;-68
2023/07/28 06:18:45;;;;;;;15.43;10.65;;;19.70;98.60;;;;;;5050206;28;20013;-68
2023/07/28 06:21:11;;;;;;;15.50;10.80;;;19.70;98.50;;;;;;5032506;28;20067;-68
2023/07/28 06:23:36;;;;;;;13.05;9.93;;;19.70;98.40;;;;;;5050342;28;20052;-69
2023/07/28 06:26:02;;;;;;;14.75;10.60;;;19.70;98.50;;;;;;5050060;28;20456;-69
2023/07/28 06:28:27;;;;;;;13.95;9.75;;;19.80;98.50;;;;;;5050270;28;20025;-69
2023/07/28 06:30:57;;;;;;;17.15;10.65;;;19.80;98.40;;;;;;5050148;28;20263;-68
2023/07/28 06:33:24;;;;;;;16.58;10.63;;;19.80;98.40;;;;;;5050296;28;20143;-68
2023/07/28 06:35:50;;;;;;;12.05;9.18;;;19.80;98.30;;;;;;5050806;28;20025;-68
2023/07/28 06:38:15;;;;;;;18.33;11.52;;;19.80;98.30;;;;;;5050811;28;20017;-69
2023/07/28 06:40:41;;;;;;;14.30;10.13;;;19.80;98.30;;;;;;5050432;28;20021;-68
2023/07/28 06:43:07;;;;;;;14.35;10.20;;;19.80;98.40;;;;;;5050288;28;20424;-68
2023/07/28 06:45:33;;;;;;;13.60;9.50;;;19.80;98.40;;;;;;5031719;28;20234;-68
2023/07/28 06:47:59;;;;;;;14.35;10.07;;;19.80;98.40;;;;;;5050095;28;20385;-68
2023/07/28 06:50:24;;;;;;;13.07;9.23;;;19.90;98.30;;;;;;5049797;28;20025;-68
2023/07/28 06:52:50;;;;;;;14.27;9.70;;;19.90;98.20;;;;;;5049871;28;20372;-68
2023/07/28 06:55:16;;;;;;;15.70;11.13;;;19.80;98.20;;;;;;5050041;28;20523;-68
2023/07/28 06:57:42;;;;;;;13.88;10.23;;;19.80;98.20;;;;;;5049919;28;20021;-68
2023/07/28 07:00:11;;;;;;;15.65;11.45;;;19.90;98.40;;;;;;5049643;28;20108;-68
2023/07/28 07:02:36;;;;;;;16.58;11.77;;;19.80;98.40;;;;;;5049714;28;20032;-68
2023/07/28 07:05:02;;;;;;;14.68;9.93;;;19.80;98.40;;;;;;5049664;28;20375;-68
2023/07/28 07:07:28;;;;;;;17.33;12.23;;;19.90;98.40;;;;;;5049936;28;20099;-68
2023/07/28 07:09:54;;;;;;;19.60;13.43;;;19.90;98.30;;;;;;5049953;28;20112;-68
2023/07/28 07:12:21;;;;;;;16.85;11.38;;;19.80;98.30;;;;;;5049713;28;20029;-68
2023/07/28 07:14:47;;;;;;;17.60;12.30;;;19.90;98.30;;;;;;5049640;28;20418;-68
2023/07/28 07:17:12;;;;;;;18.13;12.30;;;19.90;98.30;;;;;;5049377;28;20021;-68
2023/07/28 07:19:39;;;;;;;15.82;12.48;;;19.90;98.40;;;;;;5031764;28;20116;-68
2023/07/28 07:22:05;;;;;;;17.35;10.75;;;19.90;98.40;;;;;;5049625;28;20028;-69
2023/07/28 07:24:30;;;;;;;18.83;12.57;;;19.90;98.40;;;;;;5049639;28;20017;-68
2023/07/28 07:26:56;;;;;;;16.52;11.57;;;20.00;98.30;;;;;;5049588;28;20017;-68
2023/07/28 07:29:21;;;;;;;19.40;13.35;;;20.00;98.20;;;;;;5049560;28;20021;-68
2023/07/28 07:31:47;;;;;;;16.70;12.27;;;20.00;98.20;;;;;;5049343;28;20384;-68
2023/07/28 07:34:12;;;;;;;19.67;13.10;;;20.00;98.20;;;;;;5049563;28;20028;-69
2023/07/28 07:36:39;;;;;;;19.17;13.00;;;20.00;98.20;;;;;;5049295;28;20036;-69
2023/07/28 07:39:05;;;;;;;16.45;11.95;;;20.10;98.10;;;;;;5049399;28;20021;-68
2023/07/28 07:41:31;;;;;;;17.35;11.63;;;20.10;98.10;;;;;;5049283;28;20025;-69
2023/07/28 07:43:56;;;;;;;15.52;10.77;;;20.10;98.10;;;;;;5049267;28;20074;-69
2023/07/28 07:46:22;;;;;;;19.33;11.98;;;20.20;98.10;;;;;;5049202;28;20033;-69
2023/07/28 07:48:48;;;;;;;17.27;12.63;;;20.20;97.90;;;;;;5049178;28;20442;-69
2023/07/28 07:51:15;;;;;;;17.55;12.27;;;20.20;97.90;;;;;;5049380;28;20033;-69
2023/07/28 07:53:41;;;;;;;13.40;9.75;;;20.20;97.90;;;;;;5049114;28;20031;-68
2023/07/28 07:56:08;;;;;;;15.55;10.45;;;20.20;97.90;;;;;;5049871;28;20021;-69
2023/07/28 07:58:34;;;;;;;14.10;10.63;;;20.20;97.80;;;;;;5052713;28;20446;-68
2023/07/28 08:01:00;;;;;;;15.85;10.35;;;20.30;97.80;;;;;;5052762;28;20021;-69
2023/07/28 08:03:25;;;;;;;16.98;11.25;;;20.30;97.70;;;;;;5034831;28;20379;-68
2023/07/28 08:05:51;;;;;;;15.90;11.77;;;20.30;97.60;;;;;;5052725;28;20495;-68
2023/07/28 08:08:19;;;;;;;16.85;10.23;;;20.30;97.50;;;;;;5052725;28;20025;-69
2023/07/28 08:10:52;;;;;;;14.15;9.30;;;20.30;97.50;;;;;;5052784;28;20017;-69
2023/07/28 08:13:17;;;;;;;14.65;10.80;;;20.40;97.50;;;;;;5034357;28;20044;-69
2023/07/28 08:15:44;;;;;;;15.27;10.85;;;20.40;97.40;;;;;;5052295;28;20036;-68
2023/07/28 08:18:10;;;;;;;12.23;9.45;;;20.40;97.30;;;;;;5053128;28;20502;-69
2023/07/28 08:20:36;;;;;;;14.02;9.30;;;20.40;97.20;;;;;;5053838;28;20028;-69
2023/07/28 08:23:01;;;;;;;11.32;8.70;;;20.50;97.20;;;;;;5052495;28;20025;-69
2023/07/28 08:25:27;;;;;;;11.80;8.68;;;20.60;97.10;;;;;;5052262;28;20044;-69
2023/07/28 08:27:53;;;;;;;14.05;10.23;;;20.60;97.00;;;;;;5052331;28;20029;-69
2023/07/28 08:30:18;;;;;;;14.80;10.23;;;20.70;96.90;;;;;;5051887;28;20040;-69
2023/07/28 08:32:44;;;;;;;12.65;8.98;;;20.70;96.80;;;;;;5052404;28;20021;-69
2023/07/28 08:35:10;;;;;;;21.63;12.30;;;20.70;96.80;;;;;;5052071;28;20044;-69
2023/07/28 08:37:35;;;;;;;18.58;12.35;;;20.70;96.60;;;;;;5052160;28;20483;-68
2023/07/28 08:40:02;;;;;;;13.45;8.90;;;20.50;96.40;;;;;;5034249;28;20074;-69
2023/07/28 08:42:30;;;;;;;14.75;11.02;;;20.60;96.50;;;;;;5052155;28;20499;-69
2023/07/28 08:44:55;;;;;;;18.23;10.90;;;20.60;96.50;;;;;;5051711;28;20024;-68
2023/07/28 08:47:21;;;;;;;13.38;8.88;;;20.50;96.50;;;;;;5052067;28;20108;-69
2023/07/28 08:49:47;;;;;;;13.70;10.35;;;20.50;96.50;;;;;;5051996;28;20048;-69
2023/07/28 08:52:16;;;;;;;15.40;10.20;;;20.50;96.60;;;;;;5052369;28;20033;-69
2023/07/28 08:54:42;;;;;;;13.38;10.02;;;20.60;96.50;;;;;;5052050;28;20060;-68
2023/07/28 08:57:10;;;;;;;11.65;8.43;;;20.70;96.50;;;;;;5052385;28;20406;-69
2023/07/28 08:59:36;;;;;;;13.15;9.55;;;20.70;96.40;;;;;;5052335;28;20103;-69
2023/07/28 09:02:02;;;;;;;13.38;9.00;;;20.80;96.20;;;;;;5052332;28;20047;-69
2023/07/28 09:04:28;;;;;;;11.45;8.82;;;20.90;96.20;;;;;;5052158;28;20021;-69
2023/07/28 09:06:53;;;;;;;12.68;8.18;;;21.00;96.20;;;;;;5051667;28;20031;-69
2023/07/28 09:09:22;;;;;;;12.27;8.43;;;21.00;96.00;;;;;;5051744;28;20439;-69
2023/07/28 09:11:53;;;;;;;11.80;8.77;;;21.10;95.90;;;;;;5051309;28;20013;-68
2023/07/28 09:14:21;;;;;;;12.55;8.60;;;21.10;95.80;;;;;;5051445;28;20028;-69
2023/07/28 09:16:47;;;;;;;10.13;7.78;;;21.10;95.70;;;;;;5051424;28;20480;-69
2023/07/28 09:19:13;;;;;;;10.77;8.13;;;21.20;95.70;;;;;;5051683;28;20368;-69
2023/07/28 09:21:41;;;;;;;13.45;9.38;;;21.20;95.60;;;;;;5051485;28;20021;-68
2023/07/28 09:24:10;;;;;;;11.98;8.38;;;21.30;95.40;;;;;;5051422;28;20033;-68
2023/07/28 09:26:40;;;;;;;12.02;8.50;;;21.40;95.30;;;;;;5051160;28;20509;-68
2023/07/28 09:29:20;;;;;;;12.35;8.38;;;21.50;95.10;;;;;;5051187;28;20021;-69
2023/07/28 09:31:47;;;;;;;14.02;9.00;;;21.50;95.00;;;;;;5051167;28;20025;-69
2023/07/28 09:34:26;;;;;;;11.00;8.77;;;21.60;94.90;;;;;;5051267;28;20041;-68
2023/07/28 09:36:57;;;;;;;12.50;8.95;;;21.60;94.70;;;;;;5050942;28;20025;-69
2023/07/28 09:39:23;;;;;;;12.30;8.90;;;21.70;94.60;;;;;;5051257;28;20075;-69
2023/07/28 09:41:48;;;;;;;12.18;8.65;;;21.70;94.40;;;;;;5050937;28;20017;-68
2023/07/28 09:44:15;;;;;;;10.13;7.57;;;21.90;94.20;;;;;;5050630;28;20526;-69
2023/07/28 09:46:51;;;;;;;11.65;7.88;;;22.00;94.00;;;;;;5050875;28;20053;-68
2023/07/28 09:49:27;;;;;;;10.25;8.30;;;22.10;93.80;;;;;;5050500;28;20029;-68
2023/07/28 09:51:54;;;;;;;9.50;6.93;;;22.20;93.60;;;;;;5050854;28;20025;-69
2023/07/28 09:54:29;;;;;;;11.77;7.45;;;22.30;93.50;;;;;;5050504;28;20449;-69
2023/07/28 09:56:58;;;;;;;12.75;9.20;;;22.40;93.20;;;;;;5050672;28;20082;-69
2023/07/28 09:59:35;;;;;;;10.88;8.60;;;22.40;93.00;;;;;;5050384;28;20024;-68
2023/07/28 10:02:02;;;;;;;10.23;7.88;;;22.40;93.00;;;;;;5032487;28;20036;-68
2023/07/28 10:04:29;;;;;;;11.77;8.15;;;22.40;92.90;;;;;;5050253;28;20021;-69
2023/07/28 10:06:56;;;;;;;9.73;7.95;;;22.50;92.80;;;;;;5050385;28;20021;-69
2023/07/28 10:09:26;;;;;;;10.68;7.70;;;22.50;92.70;;;;;;5050292;28;20147;-69
2023/07/28 10:11:53;;;;;;;10.15;8.10;;;22.60;92.70;;;;;;5050335;28;20103;-69
2023/07/28 10:14:37;;;;;;;10.15;8.18;;;22.80;92.50;;;;;;5050027;28;20064;-69
2023/07/28 10:17:04;;;;;;;10.50;8.70;;;22.90;92.30;;;;;;5050186;28;20514;-69
2023/07/28 10:19:34;;;;;;;10.15;8.18;;;23.10;92.00;;;;;;5049378;28;20028;-69
2023/07/28 10:22:02;;;;;;;11.18;8.48;;;23.20;91.70;;;;;;5050321;28;20021;-69
2023/07/28 10:24:53;;;;;;;12.65;9.70;;;23.30;91.60;;;;;;5049966;28;20017;-68
2023/07/28 10:27:34;;;;;;;10.20;8.20;;;23.40;91.00;;;;;;5050167;28;20161;-69
2023/07/28 10:30:01;;;;;;;9.43;8.30;;;23.50;90.80;;;;;;5049881;28;20040;-69
2023/07/28 10:32:30;;;;;;;10.15;8.50;;;23.50;90.40;;;;;;5049930;28;20021;-68
2023/07/28 10:35:06;;;;;;;10.20;8.43;;;23.80;90.20;;;;;;5031947;28;20024;-69
2023/07/28 10:37:32;;;;;;;9.88;7.78;;;23.90;89.90;;;;;;5050356;28;20025;-69
2023/07/28 10:40:35;;;;;;;9.85;7.72;;;24.00;88.70;;;;;;5049888;28;20025;-69
2023/07/28 10:43:01;;;;;;;10.65;8.73;;;24.00;88.10;;;;;;5050094;28;20075;-69
2023/07/28 10:45:29;;;;;;;10.50;8.18;;;24.00;87.50;;;;;;5049702;28;20017;-69
2023/07/28 10:47:56;;;;;;;9.13;7.53;;;23.90;87.60;;;;;;5050519;28;20596;-69
2023/07/28 10:50:23;;;;;;;12.52;8.80;;;24.20;88.00;;;;;;5049970;28;20047;-69
2023/07/28 10:52:49;;;;;;;9.95;7.93;;;24.40;87.00;;;;;;5049873;28;20105;-69
2023/07/28 10:55:26;;;;;;;11.25;8.68;;;24.60;86.00;;;;;;5049928;28;20112;-69
2023/07/28 10:57:53;;;;;;;9.60;7.93;;;24.70;84.60;;;;;;5049750;28;20081;-69
2023/07/28 11:00:21;;;;;;;9.07;7.32;;;24.80;84.40;;;;;;5049619;28;20029;-70
2023/07/28 11:02:54;;;;;;;8.13;6.70;;;24.80;83.80;;;;;;5049841;28;20029;-69
2023/07/28 11:05:27;;;;;;;8.48;6.63;;;24.70;83.60;;;;;;5049630;28;20086;-70
2023/07/28 11:07:57;;;;;;;8.43;6.80;;;24.70;83.60;;;;;;5049730;28;20021;-69
2023/07/28 11:10:24;;;;;;;7.18;5.72;;;24.70;83.30;;;;;;5049663;28;20033;-69
2023/07/28 11:12:51;;;;;;;7.95;6.28;;;24.70;83.50;;;;;;5049349;28;20071;-69
2023/07/28 11:15:17;;;;;;;10.35;7.07;;;24.70;83.20;;;;;;5049538;28;20116;-69
2023/07/28 11:17:46;;;;;;;8.68;7.50;;;24.70;83.20;;;;;;5049697;28;20109;-69
2023/07/28 11:20:26;;;;;;;9.18;7.07;;;24.70;82.80;;;;;;5049661;28;20074;-69
2023/07/28 11:22:57;;;;;;;8.15;6.95;;;24.60;82.90;;;;;;5049561;28;20052;-69
2023/07/28 11:25:28;;;;;;;8.90;7.63;;;24.70;83.00;;;;;;5049377;28;20022;-69
2023/07/28 11:27:55;;;;;;;10.43;8.73;;;24.80;82.70;;;;;;5049807;28;20259;-69
2023/07/28 11:30:21;;;;;;;9.02;8.05;;;24.80;81.80;;;;;;5050913;28;20040;-69
2023/07/28 11:32:49;;;;;;;9.57;7.57;;;24.70;81.70;;;;;;5053490;28;20020;-69
2023/07/28 11:35:16;;;;;;;7.97;7.15;;;24.80;81.30;;;;;;5053610;28;20498;-69
2023/07/28 11:37:44;;;;;;;8.30;7.13;;;24.70;80.20;;;;;;5053337;28;20489;-69
2023/07/28 11:40:11;;;;;;;8.60;7.70;;;24.70;80.20;;;;;;5053265;28;20060;-69
2023/07/28 11:42:43;;;;;;;9.80;8.00;;;24.60;79.90;;;;;;5053253;28;20025;-69
2023/07/28 11:45:10;;;;;;;10.60;8.93;;;24.50;79.90;;;;;;5053066;28;20017;-69
2023/07/28 11:47:35;;;;;;;8.85;7.45;;;24.40;79.70;;;;;;5035254;28;20502;-69
2023/07/28 11:50:01;;;;;;;9.98;8.40;;;24.50;80.10;;;;;;5053036;28;20053;-69
2023/07/28 11:52:36;;;;;;;8.68;7.45;;;24.60;80.00;;;;;;5052872;28;20491;-69
2023/07/28 11:55:06;;;;;;;9.70;8.20;;;24.60;79.70;;;;;;5052715;28;20032;-69
2023/07/28 11:57:33;;;;;;;8.88;7.63;;;24.80;79.30;;;;;;5052921;28;20021;-69
2023/07/28 11:59:59;;;;;;;9.98;8.38;;;24.90;79.30;;;;;;5052825;28;20029;-69
2023/07/28 12:02:26;;;;;;;10.90;8.90;;;25.00;78.60;;;;;;5052987;28;20450;-69
2023/07/28 12:04:54;;;;;;;10.88;9.27;;;25.10;78.40;;;;;;5052537;28;20075;-69
2023/07/28 12:07:27;;;;;;;9.93;8.70;;;25.20;77.80;;;;;;5052810;28;20032;-69
2023/07/28 12:09:54;;;;;;;9.98;7.97;;;25.30;77.30;;;;;;5052718;28;20025;-69
2023/07/28 12:12:22;;;;;;;8.43;7.47;;;25.40;77.00;;;;;;5052484;28;20470;-69
2023/07/28 12:14:51;;;;;;;12.52;9.60;;;25.50;76.20;;;;;;5052443;28;20014;-70
2023/07/28 12:17:18;;;;;;;9.20;7.65;;;25.50;75.00;;;;;;5034690;28;20701;-69
2023/07/28 12:19:56;;;;;;;8.35;6.95;;;25.50;75.00;;;;;;5052532;28;20031;-70
2023/07/28 12:22:21;;;;;;;7.95;6.18;;;25.60;74.90;;;;;;5052391;28;20361;-69
2023/07/28 12:24:47;;;;;;;9.50;7.25;;;25.70;74.60;;;;;;5052370;28;20024;-69
2023/07/28 12:27:13;;;;;;;7.20;6.35;;;25.80;74.10;;;;;;5052514;28;20028;-69
2023/07/28 12:29:39;;;;;;;7.93;6.47;;;25.80;74.00;;;;;;5052207;28;20037;-70
2023/07/28 12:32:05;;;;;;;10.55;7.45;;;25.90;73.90;;;;;;5052021;28;20100;-69
2023/07/28 12:34:30;;;;;;;8.80;6.63;;;25.90;73.90;;;;;;5052174;28;20112;-69